createdAt,value
2022-08-28T00:01:38.462Z,73.69
2022-08-28T00:06:46.248Z,75.13
2022-08-28T00:11:38.348Z,76.33
2022-08-28T00:16:38.197Z,76.37
2022-08-28T00:21:38.107Z,76.46
2022-08-28T00:26:38.268Z,76.67
2022-08-28T00:31:37.970Z,74.26
2022-08-28T00:36:39.278Z,75.16
2022-08-28T00:41:37.827Z,75.02
2022-08-28T00:46:38.007Z,74.63
2022-08-28T00:51:40.815Z,75.16
2022-08-28T00:56:37.813Z,76.50
2022-08-28T01:01:37.608Z,76.06
2022-08-28T01:06:37.511Z,75.37
2022-08-28T01:11:37.535Z,76.60
2022-08-28T01:16:45.450Z,76.26
2022-08-28T01:21:44.295Z,74.76
2022-08-28T01:26:37.396Z,76.60
2022-08-28T01:31:37.573Z,76.60
2022-08-28T01:36:37.169Z,76.50
2022-08-28T01:41:37.138Z,76.84
2022-08-28T01:46:37.638Z,76.43
2022-08-28T01:51:40.903Z,76.74
2022-08-28T01:56:36.830Z,78.22
2022-08-28T02:01:36.898Z,76.94
2022-08-28T02:06:36.662Z,76.47
2022-08-28T02:11:36.928Z,76.43
2022-08-28T02:16:36.684Z,76.43
2022-08-28T02:21:36.643Z,76.28
2022-08-28T02:26:36.451Z,76.37
2022-08-28T02:31:36.418Z,76.67
2022-08-28T02:36:36.378Z,75.77
2022-08-28T02:41:36.257Z,76.47
2022-08-28T02:46:36.198Z,76.17
2022-08-28T02:51:39.480Z,74.97
2022-08-28T02:56:36.015Z,75.60
2022-08-28T03:01:36.273Z,74.17
2022-08-28T03:06:35.931Z,74.54
2022-08-28T03:11:35.898Z,74.34
2022-08-28T03:16:35.878Z,72.63
2022-08-28T03:21:35.873Z,72.03
2022-08-28T03:26:35.781Z,71.53
2022-08-28T03:31:43.031Z,70.56
2022-08-28T03:36:35.539Z,71.90
2022-08-28T03:41:35.599Z,71.03
2022-08-28T03:46:35.539Z,70.89
2022-08-28T03:51:38.373Z,70.19
2022-08-28T03:56:35.251Z,73.07
2022-08-28T04:01:35.431Z,72.80
2022-08-28T04:06:36.183Z,71.43
2022-08-28T04:11:35.139Z,72.60
2022-08-28T04:16:35.152Z,72.00
2022-08-28T04:21:35.086Z,71.86
2022-08-28T04:26:34.880Z,71.56
2022-08-28T04:31:34.855Z,72.87
2022-08-28T04:36:34.778Z,72.90
2022-08-28T04:42:52.313Z,72.77
2022-08-28T04:48:00.415Z,70.69
2022-08-28T04:52:53.056Z,70.73
2022-08-28T04:57:52.173Z,72.13
2022-08-28T05:02:51.964Z,72.63
2022-08-28T05:07:52.084Z,71.03
2022-08-28T05:12:51.853Z,73.21
2022-08-28T05:17:51.820Z,71.86
2022-08-28T05:22:51.677Z,72.67
2022-08-28T05:27:51.754Z,71.73
2022-08-28T05:33:02.081Z,71.59
2022-08-28T05:37:59.013Z,72.30
2022-08-28T05:42:51.464Z,71.53
2022-08-28T05:47:59.242Z,70.09
2022-08-28T05:52:51.376Z,70.93
2022-08-28T05:57:51.254Z,70.32
2022-08-28T06:02:51.186Z,73.27
2022-08-28T06:07:51.116Z,71.90
2022-08-28T06:12:51.033Z,72.74
2022-08-28T06:17:52.388Z,70.06
2022-08-28T06:22:50.907Z,68.73
2022-08-28T06:27:51.036Z,69.86
2022-08-28T06:32:53.929Z,69.02
2022-08-28T06:37:51.055Z,71.23
2022-08-28T06:42:51.895Z,68.29
2022-08-28T06:47:50.523Z,67.76
2022-08-28T06:52:50.594Z,69.49
2022-08-28T06:57:50.533Z,69.19
2022-08-28T07:02:50.514Z,71.30
2022-08-28T07:07:50.324Z,69.79
2022-08-28T07:12:50.234Z,68.89
2022-08-28T07:17:50.154Z,68.99
2022-08-28T07:22:50.181Z,69.26
2022-08-28T07:27:51.182Z,69.39
2022-08-28T07:32:53.341Z,69.35
2022-08-28T07:37:50.131Z,71.63
2022-08-28T07:42:51.111Z,69.56
2022-08-28T07:47:50.081Z,68.39
2022-08-28T07:52:49.724Z,67.29
2022-08-28T07:57:49.736Z,65.93
2022-08-28T08:02:57.076Z,64.23
2022-08-28T08:07:49.526Z,64.76
2022-08-28T08:12:49.443Z,63.40
2022-08-28T08:17:49.479Z,65.29
2022-08-28T08:22:49.293Z,65.23
2022-08-28T08:27:49.333Z,64.83
2022-08-28T08:32:54.461Z,65.56
2022-08-28T08:37:49.224Z,62.34
2022-08-28T08:42:49.213Z,64.63
2022-08-28T08:47:49.083Z,62.18
2022-08-28T08:52:48.984Z,64.66
2022-08-28T08:57:49.447Z,64.76
2022-08-28T09:02:48.831Z,62.70
2022-08-28T09:07:53.005Z,61.71
2022-08-28T09:12:48.645Z,63.46
2022-08-28T09:17:48.773Z,65.75
2022-08-28T09:22:56.026Z,60.80
2022-08-28T09:27:48.644Z,61.63
2022-08-28T09:32:51.396Z,61.65
2022-08-28T09:37:48.268Z,60.58
2022-08-28T09:42:48.338Z,60.52
2022-08-28T09:47:48.203Z,60.91
2022-08-28T09:52:55.578Z,59.77
2022-08-28T09:57:48.046Z,59.31
2022-08-28T10:02:48.016Z,61.04
2022-08-28T10:07:48.056Z,61.25
2022-08-28T10:12:47.900Z,60.08
2022-08-28T10:17:47.829Z,57.90
2022-08-28T10:22:47.788Z,59.18
2022-08-28T10:27:47.589Z,59.95
2022-08-28T10:32:50.584Z,58.07
2022-08-28T10:37:47.571Z,60.49
2022-08-28T10:42:48.365Z,56.38
2022-08-28T10:47:47.546Z,59.15
2022-08-28T10:52:47.318Z,56.81
2022-08-28T10:57:47.196Z,58.58
2022-08-28T11:02:47.685Z,60.85
2022-08-28T11:07:47.088Z,58.27
2022-08-28T11:12:47.046Z,56.38
2022-08-28T11:17:46.987Z,57.28
2022-08-28T11:22:46.944Z,57.20
2022-08-28T11:27:47.076Z,55.11
2022-08-28T11:32:49.874Z,56.42
2022-08-28T11:37:46.838Z,56.45
2022-08-28T11:42:46.701Z,56.15
2022-08-28T11:47:46.565Z,53.27
2022-08-28T11:52:46.573Z,55.76
2022-08-28T11:57:46.393Z,55.82
2022-08-28T12:02:46.799Z,56.10
2022-08-28T12:07:46.305Z,54.41
2022-08-28T12:12:46.374Z,55.27
2022-08-28T12:17:46.149Z,55.70
2022-08-28T12:22:46.365Z,52.54
2022-08-28T12:27:45.997Z,54.82
2022-08-28T12:32:49.102Z,53.44
2022-08-28T12:37:52.335Z,54.25
2022-08-28T12:42:46.984Z,53.23
2022-08-28T12:47:45.736Z,52.12
2022-08-28T12:52:45.853Z,54.85
2022-08-28T12:57:45.707Z,50.83
2022-08-28T13:02:50.672Z,49.89
2022-08-28T13:07:45.546Z,51.20
2022-08-28T13:12:55.975Z,47.86
2022-08-28T13:17:46.382Z,48.15
2022-08-28T13:22:50.681Z,48.40
2022-08-28T13:27:46.279Z,49.09
2022-08-28T13:32:48.188Z,49.86
2022-08-28T13:37:45.116Z,50.16
2022-08-28T13:42:45.061Z,48.57
2022-08-28T13:47:44.971Z,48.67
2022-08-28T13:52:45.155Z,49.86
2022-08-28T13:57:44.822Z,48.25
2022-08-28T14:02:44.886Z,46.00
2022-08-28T14:07:52.634Z,46.37
2022-08-28T14:12:52.118Z,45.56
2022-08-28T14:17:44.791Z,45.18
2022-08-28T14:22:44.580Z,47.26
2022-08-28T14:27:44.534Z,43.85
2022-08-28T14:32:47.446Z,42.76
2022-08-28T14:37:44.322Z,43.28
2022-08-28T14:42:44.306Z,44.29
2022-08-28T14:47:44.223Z,43.95
2022-08-28T14:52:44.182Z,42.71
2022-08-28T14:57:44.069Z,42.09
2022-08-28T15:02:44.062Z,41.30
2022-08-28T15:07:43.975Z,38.89
2022-08-28T15:12:43.926Z,38.95
2022-08-28T15:17:43.776Z,37.91
2022-08-28T15:22:43.831Z,37.77
2022-08-28T15:27:43.751Z,34.80
2022-08-28T15:32:46.618Z,35.90
2022-08-28T15:37:43.521Z,37.85
2022-08-28T15:42:43.844Z,38.04
2022-08-28T15:47:43.368Z,39.20
2022-08-28T15:52:43.343Z,40.23
2022-08-28T15:57:43.488Z,40.55
2022-08-28T16:02:43.273Z,43.30
2022-08-28T16:07:43.103Z,43.30
2022-08-28T16:12:43.072Z,43.62
2022-08-28T16:17:43.036Z,41.14
2022-08-28T16:22:43.051Z,47.65
2022-08-28T16:27:43.027Z,46.86
2022-08-28T16:32:46.738Z,46.56
2022-08-28T16:37:42.882Z,48.32
2022-08-28T16:42:42.668Z,48.49
2022-08-28T16:47:44.239Z,47.97
2022-08-28T16:52:50.643Z,48.44
2022-08-28T16:57:50.100Z,48.74
2022-08-28T17:02:42.602Z,53.71
2022-08-28T17:07:42.587Z,53.74
2022-08-28T17:12:42.378Z,57.37
2022-08-28T17:17:42.271Z,60.15
2022-08-28T17:22:42.378Z,61.71
2022-08-28T17:27:42.256Z,63.63
2022-08-28T17:32:45.926Z,65.09
2022-08-28T17:37:42.244Z,66.82
2022-08-28T17:42:42.105Z,65.09
2022-08-28T17:47:41.956Z,57.59
2022-08-28T17:52:41.886Z,52.92
2022-08-28T17:57:41.764Z,51.47
2022-08-28T18:02:41.919Z,50.87
2022-08-28T18:07:41.917Z,50.60
2022-08-28T18:12:41.656Z,51.17
2022-08-28T18:20:20.882Z,49.60
2022-08-28T18:25:20.447Z,50.20
2022-08-28T19:07:59.319Z,59.83
2022-08-28T19:12:58.991Z,59.96
2022-08-28T19:17:58.989Z,60.10
2022-08-28T19:22:58.998Z,60.80
2022-08-28T19:27:59.395Z,60.89
2022-08-28T19:32:58.771Z,61.43
2022-08-28T19:37:58.895Z,63.59
2022-08-28T19:42:58.711Z,64.20
2022-08-28T19:47:58.709Z,65.36
2022-08-28T19:52:58.501Z,66.00
2022-08-28T19:58:01.708Z,66.33
2022-08-28T20:02:58.469Z,67.27
2022-08-28T20:07:58.331Z,66.94
2022-08-28T20:12:58.304Z,67.54
2022-08-28T20:17:58.299Z,66.63
2022-08-28T20:22:58.066Z,67.14
2022-08-28T20:28:01.563Z,67.03
2022-08-28T20:32:57.951Z,67.71
2022-08-28T20:37:57.954Z,69.38
2022-08-28T20:42:57.936Z,70.83
2022-08-28T20:47:57.921Z,71.53
2022-08-28T20:52:57.954Z,71.77
2022-08-28T20:58:00.762Z,70.79
2022-08-28T21:02:57.694Z,72.31
2022-08-28T21:07:57.633Z,71.97
2022-08-28T21:12:57.576Z,71.06
2022-08-28T21:17:58.226Z,71.17
2022-08-28T21:22:57.348Z,71.60
2022-08-28T21:27:57.264Z,71.17
2022-08-28T21:32:57.175Z,70.29
2022-08-28T21:37:57.206Z,71.87
2022-08-28T21:42:57.085Z,71.91
2022-08-28T21:47:56.985Z,72.34
2022-08-28T21:52:56.933Z,71.97
2022-08-28T21:57:59.938Z,71.80
2022-08-28T22:02:56.856Z,73.79
2022-08-28T22:07:56.761Z,73.99
2022-08-28T22:12:56.701Z,73.49
2022-08-28T22:17:56.638Z,74.30
2022-08-28T22:22:56.579Z,74.60
2022-08-28T22:27:56.573Z,76.05
2022-08-28T22:33:03.893Z,76.79
2022-08-28T22:37:56.421Z,78.55
2022-08-28T22:42:56.277Z,77.50
2022-08-28T22:47:56.243Z,78.08
2022-08-28T22:52:56.156Z,79.64
2022-08-28T22:57:59.092Z,80.39
2022-08-28T23:02:56.025Z,80.02
2022-08-28T23:07:56.042Z,77.51
2022-08-28T23:12:55.901Z,76.43
2022-08-28T23:17:55.801Z,75.92
2022-08-28T23:23:03.551Z,74.74
2022-08-28T23:28:14.615Z,75.92
2022-08-28T23:34:08.913Z,78.53
2022-08-28T23:39:07.138Z,78.77
2022-08-28T23:44:09.033Z,78.46
2022-08-28T23:49:07.061Z,77.95
2022-08-28T23:54:06.971Z,76.77
2022-08-28T23:59:06.909Z,78.26
